Anderson, Alaska
Current Conditions -  °F | °C
As of 12:53 PM on Monday 20 Oct 2014 (Local Time) from PANN Reporting Station
Overcast Overcast  
Wind Chill: 30°   Ceiling: 4500
Heat Index: 37°   Visibility: 10mi
Dew Point: 24°   Wind: 10mph
Humidity: 59%   Direction: 80°E
Pressure: 29.08"   Gusts: NA
Location:  64.34°N, 149.19°W
Report Text: PANN 202053Z AUTO 08009KT 10SM OVC045 03/M04 A2908 RMK AO2 SLP856 T00281044 56002 TSNO
Loading
Personal Weather Stations






























Interactive Weather Map New forecast layout! Learn more

10-Day Weather Forecast

Advertisements
Track Severe Weather on mobile